createdAt,value
2019-05-16T00:00:51.412Z,10.
2019-05-16T00:01:51.388Z,10.
2019-05-16T00:02:51.429Z,12.
2019-05-16T00:03:51.367Z,10.
2019-05-16T00:04:51.358Z,12.
2019-05-16T00:05:54.387Z,11.
2019-05-16T00:06:51.335Z,11.
2019-05-16T00:07:51.326Z,11.
2019-05-16T00:08:51.411Z,12.
2019-05-16T00:09:51.305Z,12.19
2019-05-16T00:10:51.288Z,12.69
2019-05-16T00:11:51.281Z,12.80
2019-05-16T00:12:51.274Z,16.29
2019-05-16T00:13:51.258Z,14.30
2019-05-16T00:14:51.401Z,16.39
2019-05-16T00:15:51.238Z,11.19
2019-05-16T00:16:51.233Z,12.39
2019-05-16T00:17:51.213Z,12.50
2019-05-16T00:18:51.215Z,13.19
2019-05-16T00:19:51.422Z,13.10
2019-05-16T00:20:51.283Z,14.50
2019-05-16T00:21:51.170Z,9.69
2019-05-16T00:22:51.160Z,9.00
2019-05-16T00:23:51.149Z,9.60
2019-05-16T00:24:51.145Z,8.69
2019-05-16T00:25:51.128Z,9.69
2019-05-16T00:26:51.222Z,9.00
2019-05-16T00:27:51.109Z,9.50
2019-05-16T00:28:51.095Z,10.00
2019-05-16T00:29:51.086Z,9.60
2019-05-16T00:30:51.072Z,8.89
2019-05-16T00:31:51.062Z,8.69
2019-05-16T00:32:51.209Z,9.00
2019-05-16T00:33:51.041Z,8.69
2019-05-16T00:34:51.030Z,9.00
2019-05-16T00:36:02.243Z,9.60
2019-05-16T00:37:18.004Z,8.89
2019-05-16T00:38:15.862Z,9.19
2019-05-16T00:39:15.806Z,9.60
2019-05-16T00:40:15.792Z,10.19
2019-05-16T00:41:17.842Z,10.19
2019-05-16T00:42:17.958Z,10.10
2019-05-16T00:43:15.760Z,9.19
2019-05-16T00:44:15.846Z,8.69
2019-05-16T00:45:18.327Z,8.50
2019-05-16T00:46:15.726Z,9.19
2019-05-16T00:47:17.706Z,9.89
2019-05-16T00:48:15.704Z,9.10
2019-05-16T00:49:15.699Z,8.50
2019-05-16T00:50:18.052Z,8.69
2019-05-16T00:51:15.673Z,9.10
2019-05-16T00:52:15.663Z,8.10
2019-05-16T00:53:15.648Z,8.69
2019-05-16T00:54:15.642Z,8.19
2019-05-16T00:55:17.779Z,8.39
2019-05-16T00:56:15.718Z,9.19
2019-05-16T00:57:15.606Z,9.50
2019-05-16T00:58:18.511Z,9.39
2019-05-16T00:59:15.586Z,8.80
2019-05-16T01:00:18.029Z,9.69
2019-05-16T01:01:15.569Z,9.30
2019-05-16T01:02:15.601Z,9.19
2019-05-16T01:03:15.541Z,9.60
2019-05-16T01:04:15.529Z,9.80
2019-05-16T01:05:15.518Z,10.30
2019-05-16T01:06:19.923Z,10.30
2019-05-16T01:07:40.711Z,10.30
2019-05-16T01:08:40.697Z,10.60
2019-05-16T01:09:40.691Z,9.80
2019-05-16T01:10:40.679Z,9.80
2019-05-16T01:11:40.670Z,9.89
2019-05-16T01:12:40.708Z,9.89
2019-05-16T01:13:40.648Z,10.10
2019-05-16T01:14:40.639Z,9.89
2019-05-16T01:15:40.626Z,9.10
2019-05-16T01:16:40.620Z,10.10
2019-05-16T01:17:40.605Z,9.89
2019-05-16T01:18:40.651Z,9.89
2019-05-16T01:19:40.586Z,10.39
2019-05-16T01:20:40.574Z,10.39
2019-05-16T01:21:40.565Z,10.00
2019-05-16T01:22:40.554Z,9.39
2019-05-16T01:23:40.543Z,9.80
2019-05-16T01:24:41.499Z,10.00
2019-05-16T01:25:40.521Z,9.89
2019-05-16T01:26:40.509Z,10.00
2019-05-16T01:27:40.498Z,9.69
2019-05-16T01:28:40.489Z,9.50
2019-05-16T01:29:40.476Z,10.00
2019-05-16T01:30:40.518Z,10.39
2019-05-16T01:31:40.457Z,10.39
2019-05-16T01:32:40.448Z,10.10
2019-05-16T01:33:40.434Z,10.00
2019-05-16T01:34:40.422Z,9.60
2019-05-16T01:35:41.861Z,10.30
2019-05-16T01:36:40.875Z,10.00
2019-05-16T01:37:40.391Z,10.10
2019-05-16T01:38:40.382Z,10.69
2019-05-16T01:39:40.371Z,10.19
2019-05-16T01:40:40.367Z,10.50
2019-05-16T01:41:40.351Z,10.69
2019-05-16T01:42:40.589Z,10.69
2019-05-16T01:43:40.329Z,11.30
2019-05-16T01:44:40.319Z,13.10
2019-05-16T01:45:40.307Z,12.80
2019-05-16T01:46:40.296Z,14.10
2019-05-16T01:47:40.285Z,17.20
2019-05-16T01:48:40.324Z,16.10
2019-05-16T01:49:40.266Z,16.29
2019-05-16T01:50:40.251Z,15.89
2019-05-16T01:51:40.243Z,14.80
2019-05-16T01:52:40.237Z,15.89
2019-05-16T01:53:40.221Z,15.80
2019-05-16T01:54:40.260Z,16.29
2019-05-16T01:55:40.204Z,16.60
2019-05-16T01:56:40.190Z,16.29
2019-05-16T01:57:40.178Z,15.39
2019-05-16T01:58:40.168Z,14.69
2019-05-16T01:59:40.158Z,13.69
2019-05-16T02:00:49.190Z,12.00
2019-05-16T02:01:41.235Z,10.69
2019-05-16T02:02:40.126Z,8.80
2019-05-16T02:03:40.112Z,8.39
2019-05-16T02:04:40.107Z,8.80
2019-05-16T02:05:40.094Z,8.00
2019-05-16T02:06:50.856Z,8.50
2019-05-16T02:08:04.888Z,8.19
2019-05-16T02:09:04.875Z,8.80
2019-05-16T02:10:04.864Z,9.19
2019-05-16T02:11:04.852Z,11.89
2019-05-16T02:12:04.892Z,11.19
2019-05-16T02:13:04.831Z,9.69
2019-05-16T02:14:04.817Z,9.80
2019-05-16T02:15:04.808Z,11.00
2019-05-16T02:16:04.795Z,9.19
2019-05-16T02:17:04.787Z,9.60
2019-05-16T02:18:04.926Z,10.19
2019-05-16T02:19:04.763Z,8.50
2019-05-16T02:20:04.757Z,8.30
2019-05-16T02:21:04.745Z,9.19
2019-05-16T02:22:04.733Z,10.80
2019-05-16T02:23:04.722Z,9.80
2019-05-16T02:24:04.818Z,10.89
2019-05-16T02:25:04.702Z,10.50
2019-05-16T02:26:04.689Z,11.60
2019-05-16T02:27:04.679Z,10.30
2019-05-16T02:28:04.669Z,10.00
2019-05-16T02:29:04.713Z,10.19
2019-05-16T02:30:04.648Z,10.00
2019-05-16T02:31:04.633Z,8.39
2019-05-16T02:32:04.624Z,10.19
2019-05-16T02:33:04.613Z,7.80
2019-05-16T02:34:05.109Z,8.80
2019-05-16T02:35:04.591Z,9.60
2019-05-16T02:36:04.583Z,8.69
2019-05-16T02:37:24.326Z,8.69
2019-05-16T02:38:05.654Z,9.69
2019-05-16T02:39:04.550Z,8.60
2019-05-16T02:40:04.608Z,9.89
2019-05-16T02:41:04.525Z,9.50
2019-05-16T02:42:04.513Z,9.69
2019-05-16T02:43:04.504Z,8.80
2019-05-16T02:44:04.496Z,9.60
2019-05-16T02:45:04.589Z,11.50
2019-05-16T02:46:04.478Z,13.50
2019-05-16T02:47:04.457Z,13.50
2019-05-16T02:48:04.449Z,10.00
2019-05-16T02:49:04.439Z,11.30
2019-05-16T02:50:04.432Z,10.50
2019-05-16T02:51:04.522Z,10.00
2019-05-16T02:52:04.419Z,11.10
2019-05-16T02:53:04.393Z,11.30
2019-05-16T02:54:04.388Z,11.39
2019-05-16T02:55:04.375Z,11.69
2019-05-16T02:56:04.516Z,10.80
2019-05-16T02:57:04.352Z,10.89
2019-05-16T02:58:04.341Z,11.80
2019-05-16T02:59:04.334Z,11.19
2019-05-16T03:00:04.318Z,12.19
2019-05-16T03:01:04.307Z,11.69
2019-05-16T03:02:04.343Z,12.00
2019-05-16T03:03:04.283Z,12.60
2019-05-16T03:04:04.275Z,11.60
2019-05-16T03:05:04.266Z,12.50
2019-05-16T03:06:04.260Z,12.00
2019-05-16T03:07:04.291Z,11.39
2019-05-16T03:08:04.238Z,11.30
2019-05-16T03:09:05.353Z,11.60
2019-05-16T03:10:04.220Z,11.39
2019-05-16T03:11:04.200Z,13.50
2019-05-16T03:12:04.338Z,12.30
2019-05-16T03:13:04.177Z,12.00
2019-05-16T03:14:04.166Z,11.39
2019-05-16T03:15:04.154Z,10.69
2019-05-16T03:16:04.144Z,11.19
2019-05-16T03:17:04.142Z,12.50
2019-05-16T03:18:04.754Z,12.30
2019-05-16T03:19:04.115Z,12.10
2019-05-16T03:20:04.098Z,10.80
2019-05-16T03:21:04.090Z,12.00
2019-05-16T03:22:04.117Z,10.39
2019-05-16T03:23:04.071Z,9.80
2019-05-16T03:24:04.161Z,12.00
2019-05-16T03:25:04.052Z,12.50
2019-05-16T03:26:04.041Z,10.00
2019-05-16T03:27:04.042Z,9.89
2019-05-16T03:28:04.016Z,9.50
2019-05-16T03:29:04.005Z,9.80
2019-05-16T03:30:04.249Z,10.50
2019-05-16T03:31:05.627Z,9.89
2019-05-16T03:32:04.023Z,12.00
2019-05-16T03:33:05.602Z,11.50
2019-05-16T03:34:07.587Z,9.19
2019-05-16T03:35:05.576Z,8.39
2019-05-16T03:36:05.175Z,11.80
2019-05-16T03:37:04.922Z,10.50
2019-05-16T03:38:05.727Z,8.69
2019-05-16T03:39:03.899Z,7.30
2019-05-16T03:40:03.889Z,7.69
2019-05-16T03:41:03.881Z,8.60
2019-05-16T03:42:03.918Z,8.89
2019-05-16T03:43:03.856Z,8.89
2019-05-16T03:44:03.856Z,8.30
2019-05-16T03:45:03.836Z,8.30
2019-05-16T03:46:03.827Z,10.10
2019-05-16T03:47:03.815Z,12.00
2019-05-16T03:48:04.068Z,12.19
2019-05-16T03:49:03.798Z,14.00
2019-05-16T03:50:03.782Z,13.19
2019-05-16T03:51:03.777Z,14.39
2019-05-16T03:52:03.764Z,10.89
2019-05-16T03:53:03.753Z,14.10
2019-05-16T03:54:03.789Z,16.79
2019-05-16T03:55:03.738Z,18.29
2019-05-16T03:56:03.723Z,18.29
2019-05-16T03:57:03.714Z,17.00
2019-05-16T03:58:03.727Z,12.39
2019-05-16T03:59:03.691Z,13.00
2019-05-16T04:00:03.736Z,13.30
2019-05-16T04:01:03.680Z,12.30
2019-05-16T04:02:03.663Z,8.50
2019-05-16T04:03:03.649Z,8.00
2019-05-16T04:04:03.639Z,8.39
2019-05-16T04:05:03.629Z,7.90
2019-05-16T04:06:03.671Z,7.90
2019-05-16T04:07:03.609Z,9.10
2019-05-16T04:08:14.819Z,8.10
2019-05-16T04:09:31.333Z,7.30
2019-05-16T04:10:30.930Z,7.30
2019-05-16T04:11:31.805Z,6.90
2019-05-16T04:12:30.884Z,8.00
2019-05-16T04:13:31.078Z,6.90
2019-05-16T04:14:30.902Z,6.40
2019-05-16T04:15:31.089Z,6.69
2019-05-16T04:16:31.224Z,7.19
2019-05-16T04:17:31.419Z,7.69
2019-05-16T04:18:31.531Z,7.09
2019-05-16T04:19:31.188Z,8.39
2019-05-16T04:20:30.475Z,8.50
2019-05-16T04:21:31.941Z,8.30
2019-05-16T04:22:31.534Z,7.69
2019-05-16T04:23:30.994Z,8.39
2019-05-16T04:24:31.421Z,9.19
2019-05-16T04:25:30.935Z,9.80
2019-05-16T04:26:30.926Z,11.39
2019-05-16T04:27:30.920Z,11.19
2019-05-16T04:28:31.353Z,11.30
2019-05-16T04:29:31.272Z,11.69
2019-05-16T04:30:31.298Z,11.50
2019-05-16T04:31:30.824Z,10.69
2019-05-16T04:32:31.270Z,10.69
2019-05-16T04:33:30.882Z,10.80
2019-05-16T04:34:31.168Z,11.19
2019-05-16T04:35:28.126Z,10.19
2019-05-16T04:36:28.120Z,10.00
2019-05-16T04:37:31.100Z,9.30
2019-05-16T04:38:39.794Z,10.10
2019-05-16T04:39:31.823Z,9.50
2019-05-16T04:40:30.941Z,9.00
2019-05-16T04:41:31.131Z,9.19
2019-05-16T04:42:30.773Z,9.10
2019-05-16T04:43:31.342Z,9.19
2019-05-16T04:44:31.057Z,9.30
2019-05-16T04:45:28.028Z,8.10
2019-05-16T04:46:31.097Z,8.80
2019-05-16T04:47:30.954Z,8.10
2019-05-16T04:48:30.731Z,8.19
2019-05-16T04:49:27.987Z,8.10
2019-05-16T04:50:30.990Z,8.19
2019-05-16T04:51:30.579Z,7.80
2019-05-16T04:52:30.629Z,8.50
2019-05-16T04:53:31.291Z,7.69
2019-05-16T04:54:30.780Z,7.19
2019-05-16T04:55:31.380Z,7.69
2019-05-16T04:56:30.677Z,7.30
2019-05-16T04:57:31.018Z,6.59
2019-05-16T04:58:31.399Z,6.69
2019-05-16T04:59:30.935Z,6.59
2019-05-16T05:00:31.625Z,6.30
2019-05-16T05:01:30.687Z,6.59
2019-05-16T05:02:30.660Z,7.90
2019-05-16T05:03:31.241Z,5.69
2019-05-16T05:04:30.508Z,6.30
2019-05-16T05:05:27.830Z,5.50
2019-05-16T05:06:27.820Z,5.40
2019-05-16T05:07:30.983Z,7.09
2019-05-16T05:08:30.511Z,5.40
2019-05-16T05:09:27.806Z,4.40
2019-05-16T05:10:31.016Z,3.70
2019-05-16T05:11:30.481Z,3.59
2019-05-16T05:12:27.760Z,3.50
2019-05-16T05:13:30.485Z,2.79
2019-05-16T05:14:30.576Z,2.70
2019-05-16T05:15:30.472Z,2.90
2019-05-16T05:16:30.480Z,3.00
2019-05-16T05:17:30.430Z,2.59
2019-05-16T05:18:30.047Z,2.59
2019-05-16T05:19:30.482Z,2.40
2019-05-16T05:20:30.205Z,2.40
2019-05-16T05:21:27.668Z,2.59
2019-05-16T05:22:27.710Z,2.59
2019-05-16T05:23:29.957Z,2.40
2019-05-16T05:24:27.635Z,2.40
2019-05-16T05:25:27.631Z,2.40
2019-05-16T05:26:27.613Z,2.79
2019-05-16T05:27:27.605Z,10.60
2019-05-16T05:28:29.782Z,4.80
2019-05-16T05:29:27.586Z,5.40
2019-05-16T05:30:27.576Z,4.19
2019-05-16T05:31:27.592Z,7.69
2019-05-16T05:32:27.555Z,3.20
2019-05-16T05:33:29.971Z,2.90
2019-05-16T05:34:27.582Z,2.79
2019-05-16T05:35:27.528Z,3.09
2019-05-16T05:36:29.881Z,2.90
2019-05-16T05:37:29.606Z,3.20
2019-05-16T05:38:27.495Z,3.40
2019-05-16T05:39:27.478Z,4.19
2019-05-16T05:40:29.549Z,2.59
2019-05-16T05:41:27.460Z,2.79
2019-05-16T05:42:27.448Z,2.79
2019-05-16T05:43:27.441Z,3.00
2019-05-16T05:44:27.428Z,2.59
2019-05-16T05:45:27.419Z,2.50
2019-05-16T05:46:27.562Z,2.40
2019-05-16T05:47:27.397Z,3.00
2019-05-16T05:48:27.389Z,2.79
2019-05-16T05:49:30.025Z,3.00
2019-05-16T05:50:27.369Z,6.90
2019-05-16T05:52:30.053Z,3.59
2019-05-16T05:53:29.835Z,2.79
2019-05-16T05:54:27.326Z,3.09
2019-05-16T05:55:27.318Z,8.60
2019-05-16T05:56:27.306Z,2.70
2019-05-16T05:57:29.850Z,2.40
2019-05-16T05:58:30.508Z,2.90
2019-05-16T05:59:27.272Z,3.09
2019-05-16T06:00:30.121Z,2.40
2019-05-16T06:01:27.258Z,2.40
2019-05-16T06:02:27.240Z,2.29
2019-05-16T06:03:27.232Z,2.20
2019-05-16T06:04:27.374Z,2.29
2019-05-16T06:05:27.217Z,2.59
2019-05-16T06:06:27.200Z,2.50
2019-05-16T06:07:27.200Z,2.40
2019-05-16T06:08:27.184Z,2.29
2019-05-16T06:09:30.082Z,2.70
2019-05-16T06:10:27.207Z,2.59
2019-05-16T06:11:27.150Z,3.40
2019-05-16T06:12:27.964Z,10.80
2019-05-16T06:13:27.134Z,3.79
2019-05-16T06:14:27.116Z,2.50
2019-05-16T06:15:27.106Z,2.29
2019-05-16T06:16:27.145Z,2.50
2019-05-16T06:17:27.097Z,2.40
2019-05-16T06:18:27.076Z,2.40
2019-05-16T06:19:27.070Z,2.70
2019-05-16T06:20:27.058Z,2.40
2019-05-16T06:21:27.057Z,2.50
2019-05-16T06:22:29.657Z,2.50
2019-05-16T06:23:27.027Z,2.59
2019-05-16T06:24:27.018Z,4.30
2019-05-16T06:25:27.004Z,5.09
2019-05-16T06:26:26.995Z,3.29
2019-05-16T06:27:26.981Z,2.50
2019-05-16T06:28:27.075Z,2.79
2019-05-16T06:29:26.965Z,2.59
2019-05-16T06:30:26.957Z,2.90
2019-05-16T06:31:26.945Z,2.79
2019-05-16T06:32:26.929Z,2.70
2019-05-16T06:33:26.925Z,2.59
2019-05-16T06:34:27.013Z,2.40
2019-05-16T06:35:26.902Z,2.29
2019-05-16T06:36:26.889Z,2.50
2019-05-16T06:37:26.877Z,2.70
2019-05-16T06:38:26.869Z,3.00
2019-05-16T06:39:39.210Z,2.29
2019-05-16T06:40:52.839Z,2.40
2019-05-16T06:41:51.901Z,2.29
2019-05-16T06:42:51.890Z,2.29
2019-05-16T06:43:51.879Z,2.29
2019-05-16T06:44:51.873Z,2.29
2019-05-16T06:45:51.960Z,2.00
2019-05-16T06:47:10.072Z,2.20
2019-05-16T06:47:52.935Z,2.20
2019-05-16T06:48:51.828Z,2.20
2019-05-16T06:49:51.817Z,2.00
2019-05-16T06:50:52.056Z,2.29
2019-05-16T06:51:51.904Z,2.00
2019-05-16T06:52:51.793Z,2.59
2019-05-16T06:53:51.773Z,2.09
2019-05-16T06:54:53.805Z,2.20
2019-05-16T06:55:51.758Z,2.50
2019-05-16T06:56:51.747Z,2.40
2019-05-16T06:57:51.887Z,2.20
2019-05-16T06:58:52.266Z,2.40
2019-05-16T06:59:51.711Z,2.40
2019-05-16T07:00:52.690Z,2.40
2019-05-16T07:01:51.695Z,2.09
2019-05-16T07:02:51.683Z,2.50
2019-05-16T07:03:51.720Z,2.59
2019-05-16T07:04:51.664Z,2.40
2019-05-16T07:05:51.662Z,2.40
2019-05-16T07:06:58.924Z,2.40
2019-05-16T07:07:52.725Z,2.40
2019-05-16T07:08:51.622Z,2.20
2019-05-16T07:10:00.174Z,2.40
2019-05-16T07:10:52.701Z,2.20
2019-05-16T07:11:51.596Z,2.59
2019-05-16T07:12:51.580Z,2.70
2019-05-16T07:13:52.096Z,2.90
2019-05-16T07:14:51.566Z,2.90
2019-05-16T07:15:51.700Z,2.70
2019-05-16T07:16:51.545Z,2.90
2019-05-16T07:17:51.532Z,2.40
2019-05-16T07:18:51.527Z,2.70
2019-05-16T07:19:51.502Z,2.70
2019-05-16T07:20:51.607Z,2.79
2019-05-16T07:21:51.586Z,2.40
2019-05-16T07:22:51.474Z,2.59
2019-05-16T07:23:51.465Z,2.59
2019-05-16T07:24:51.459Z,2.90
2019-05-16T07:25:51.445Z,3.00
2019-05-16T07:26:51.452Z,3.00
2019-05-16T07:27:51.521Z,2.50
2019-05-16T07:28:51.807Z,3.09
2019-05-16T07:29:51.401Z,2.79
2019-05-16T07:30:51.392Z,2.79
2019-05-16T07:31:52.458Z,3.20
2019-05-16T07:32:51.370Z,3.00
2019-05-16T07:33:51.521Z,2.79
2019-05-16T07:34:51.350Z,2.79
2019-05-16T07:35:51.673Z,2.70
2019-05-16T07:36:51.329Z,2.40
2019-05-16T07:37:51.319Z,2.70
2019-05-16T07:38:51.307Z,2.90
2019-05-16T07:39:51.405Z,3.00
2019-05-16T07:40:51.579Z,2.79
2019-05-16T07:41:51.283Z,2.59
2019-05-16T07:42:51.271Z,2.79
2019-05-16T07:43:51.264Z,2.59
2019-05-16T07:44:51.258Z,2.70
2019-05-16T07:45:51.756Z,2.20
2019-05-16T07:46:51.734Z,2.50
2019-05-16T07:47:51.259Z,2.59
2019-05-16T07:48:52.042Z,2.50
2019-05-16T07:49:51.201Z,2.50
2019-05-16T07:50:51.187Z,2.29
2019-05-16T07:51:51.429Z,2.70
2019-05-16T07:52:51.379Z,2.70
2019-05-16T07:53:51.155Z,3.20
2019-05-16T07:54:51.147Z,4.00
2019-05-16T07:55:51.301Z,3.90
2019-05-16T07:56:58.714Z,4.09
2019-05-16T07:57:53.169Z,4.00
2019-05-16T07:58:51.107Z,3.90
2019-05-16T07:59:51.103Z,3.70
2019-05-16T08:01:02.114Z,4.09
2019-05-16T08:02:15.895Z,4.30
2019-05-16T08:03:15.929Z,4.09
2019-05-16T08:04:15.869Z,3.90
2019-05-16T08:05:15.855Z,3.79
2019-05-16T08:06:15.849Z,3.90
2019-05-16T08:07:15.835Z,4.19
2019-05-16T08:08:15.836Z,3.79
2019-05-16T08:09:16.217Z,3.90
2019-05-16T08:10:31.546Z,4.09
2019-05-16T08:11:40.980Z,4.50
2019-05-16T08:12:40.957Z,4.19
2019-05-16T08:13:40.589Z,4.09
2019-05-16T08:14:41.036Z,4.80
2019-05-16T08:15:40.803Z,4.50
2019-05-16T08:16:40.984Z,4.00
2019-05-16T08:17:44.159Z,4.90
2019-05-16T08:18:44.954Z,4.50
2019-05-16T08:19:40.526Z,4.50
2019-05-16T08:20:41.717Z,4.59
2019-05-16T08:21:41.204Z,3.79
2019-05-16T08:22:41.602Z,4.09
2019-05-16T08:23:41.178Z,4.50
2019-05-16T08:24:40.480Z,4.50
2019-05-16T08:25:41.201Z,4.30
2019-05-16T08:27:42.444Z,4.09
2019-05-16T08:28:41.588Z,4.19
2019-05-16T08:29:40.613Z,4.69
2019-05-16T08:30:41.181Z,4.30
2019-05-16T08:31:43.073Z,4.30
2019-05-16T08:32:42.027Z,3.79
2019-05-16T08:33:41.487Z,3.79
2019-05-16T08:34:41.003Z,3.70
2019-05-16T08:35:41.408Z,4.09
2019-05-16T08:36:41.077Z,3.90
2019-05-16T08:37:46.597Z,3.29
2019-05-16T08:39:05.195Z,3.90
2019-05-16T08:40:05.186Z,4.19
2019-05-16T08:42:08.426Z,4.19
2019-05-16T08:43:31.551Z,3.40
2019-05-16T08:44:32.373Z,3.50
2019-05-16T08:45:31.498Z,4.09
2019-05-16T08:46:32.402Z,4.50
2019-05-16T08:47:32.028Z,7.00
2019-05-16T08:48:31.830Z,9.10
2019-05-16T08:49:30.703Z,10.50
2019-05-16T08:50:05.526Z,3.59
2019-05-16T08:50:06.464Z,4.30
2019-05-16T08:50:34.776Z,13.60
2019-05-16T08:51:33.411Z,13.89
2019-05-16T08:52:31.539Z,14.69
2019-05-16T08:53:31.635Z,16.60
2019-05-16T08:54:31.879Z,19.29
2019-05-16T08:55:31.385Z,19.60
2019-05-16T08:56:31.680Z,18.79
2019-05-16T08:58:33.189Z,18.10
2019-05-16T08:59:33.951Z,16.50
2019-05-16T09:00:33.434Z,16.50
2019-05-16T09:01:34.962Z,15.60
2019-05-16T09:03:32.608Z,15.39
2019-05-16T09:04:34.390Z,15.60
2019-05-16T09:05:31.553Z,17.29
2019-05-16T09:06:32.039Z,17.10
2019-05-16T09:07:31.831Z,18.70
2019-05-16T09:08:29.779Z,18.89
2019-05-16T09:09:42.762Z,19.70
2019-05-16T09:10:39.201Z,16.70
2019-05-16T09:10:59.948Z,23.89
2019-05-16T09:11:44.687Z,25.20
2019-05-16T09:12:56.491Z,26.50
2019-05-16T09:13:57.237Z,26.60
2019-05-16T09:14:54.452Z,27.39
2019-05-16T09:15:56.979Z,31.20
2019-05-16T09:16:54.434Z,34.00
2019-05-16T09:17:54.424Z,36.40
2019-05-16T09:18:30.894Z,19.20
2019-05-16T09:18:56.878Z,35.09
2019-05-16T09:19:54.653Z,33.40
2019-05-16T09:20:54.394Z,31.29
2019-05-16T09:21:54.384Z,32.29
2019-05-16T09:22:57.541Z,34.20
2019-05-16T09:23:54.364Z,35.00
2019-05-16T09:24:57.419Z,36.09
2019-05-16T09:25:54.438Z,38.00
2019-05-16T09:26:54.331Z,37.29
2019-05-16T09:27:56.825Z,37.90
2019-05-16T09:28:56.884Z,35.59
2019-05-16T09:29:56.583Z,36.29
2019-05-16T09:30:54.285Z,40.00
2019-05-16T09:32:16.287Z,37.40
2019-05-16T09:33:19.079Z,41.90
2019-05-16T09:34:19.070Z,42.40
2019-05-16T09:35:19.057Z,42.40
2019-05-16T09:36:19.050Z,40.00
2019-05-16T09:37:19.241Z,38.79
2019-05-16T09:38:23.615Z,40.09
2019-05-16T09:39:19.013Z,38.70
2019-05-16T09:40:19.006Z,40.40
2019-05-16T09:41:18.993Z,39.70
2019-05-16T09:42:18.987Z,40.29
2019-05-16T09:43:19.078Z,38.09
2019-05-16T09:44:18.969Z,36.79
2019-05-16T09:45:18.952Z,38.20
2019-05-16T09:46:18.944Z,38.20
2019-05-16T09:47:18.929Z,40.79
2019-05-16T09:48:19.209Z,37.79
2019-05-16T09:49:24.206Z,39.29
2019-05-16T09:50:43.714Z,37.29
2019-05-16T09:51:43.722Z,38.90
2019-05-16T09:52:43.696Z,42.40
2019-05-16T09:53:43.680Z,36.40
2019-05-16T09:54:43.825Z,38.29
2019-05-16T09:55:43.661Z,33.40
2019-05-16T09:56:43.651Z,32.70
2019-05-16T09:57:43.638Z,34.59
2019-05-16T09:58:43.627Z,33.70
2019-05-16T09:59:43.616Z,34.70
2019-05-16T10:00:43.658Z,34.79
2019-05-16T10:01:43.598Z,35.70
2019-05-16T10:02:43.591Z,36.70
2019-05-16T10:03:43.576Z,35.29
2019-05-16T10:04:43.568Z,35.09
2019-05-16T10:05:43.556Z,36.40
2019-05-16T10:06:43.594Z,36.00
2019-05-16T10:07:43.537Z,36.50
2019-05-16T10:08:43.524Z,35.09
2019-05-16T10:09:46.989Z,36.20
2019-05-16T10:11:08.316Z,34.00
2019-05-16T10:12:15.190Z,34.20
2019-05-16T10:13:33.111Z,32.70
2019-05-16T10:14:33.099Z,33.09
2019-05-16T10:15:33.091Z,34.70
2019-05-16T10:16:33.083Z,33.70
2019-05-16T10:17:33.171Z,34.59
2019-05-16T10:18:33.057Z,32.79
2019-05-16T10:19:33.052Z,32.09
2019-05-16T10:20:33.039Z,31.10
2019-05-16T10:21:33.029Z,33.09
2019-05-16T10:22:33.067Z,32.79
2019-05-16T10:23:33.011Z,33.40
2019-05-16T10:24:32.997Z,34.29
2019-05-16T10:25:32.992Z,33.40
2019-05-16T10:26:32.981Z,33.90
2019-05-16T10:27:32.966Z,32.70
2019-05-16T10:28:33.356Z,32.70
2019-05-16T10:29:32.948Z,32.20
2019-05-16T10:30:32.941Z,33.09
2019-05-16T10:31:45.031Z,31.10
2019-05-16T10:33:00.404Z,30.50
2019-05-16T10:33:58.611Z,30.79
2019-05-16T10:34:57.707Z,31.20
2019-05-16T10:35:58.151Z,30.89
2019-05-16T10:36:57.755Z,32.59
2019-05-16T10:37:57.734Z,30.29
2019-05-16T10:38:59.103Z,31.50
2019-05-16T10:39:59.932Z,30.79
2019-05-16T10:40:57.651Z,29.39
2019-05-16T10:41:57.635Z,28.79
2019-05-16T10:42:58.010Z,31.10
2019-05-16T10:43:57.621Z,31.39
2019-05-16T10:44:57.861Z,28.50
2019-05-16T10:45:57.999Z,29.00
2019-05-16T10:46:57.591Z,30.60
2019-05-16T10:47:57.576Z,27.89
2019-05-16T10:48:57.866Z,28.00
2019-05-16T10:49:57.551Z,26.79
2019-05-16T10:50:57.903Z,30.00
2019-05-16T10:51:57.810Z,28.00
2019-05-16T10:53:22.588Z,27.89
2019-05-16T10:54:09.150Z,26.79
2019-05-16T10:55:22.434Z,24.60
2019-05-16T10:56:22.305Z,25.39
2019-05-16T10:57:22.464Z,28.20
2019-05-16T10:58:35.654Z,29.70
2019-05-16T11:00:01.848Z,27.20
2019-05-16T11:01:11.366Z,28.10
2019-05-16T11:02:11.910Z,28.70
2019-05-16T11:03:11.922Z,27.89
2019-05-16T11:04:24.229Z,29.29
2019-05-16T11:05:25.921Z,29.10
2019-05-16T11:06:37.215Z,25.70
2019-05-16T11:07:37.205Z,26.60
2019-05-16T11:08:39.443Z,28.00
2019-05-16T11:09:39.095Z,27.29
2019-05-16T11:10:37.282Z,28.10
2019-05-16T11:11:36.894Z,28.79
2019-05-16T11:12:47.412Z,27.60
2019-05-16T11:14:01.437Z,26.29
2019-05-16T11:15:01.391Z,27.00
2019-05-16T11:16:01.368Z,27.29
2019-05-16T11:17:01.360Z,27.89
2019-05-16T11:18:01.345Z,31.00
2019-05-16T11:19:14.295Z,28.00
2019-05-16T11:20:26.976Z,26.10
2019-05-16T11:21:26.815Z,26.20
2019-05-16T11:22:29.570Z,27.10
2019-05-16T11:23:30.879Z,27.70
2019-05-16T11:24:28.982Z,26.29
2019-05-16T11:25:31.822Z,27.50
2019-05-16T11:26:50.938Z,25.10
2019-05-16T11:27:50.925Z,25.60
2019-05-16T11:28:50.917Z,27.50
2019-05-16T11:29:50.911Z,26.39
2019-05-16T11:30:51.097Z,26.10
2019-05-16T11:31:50.886Z,26.79
2019-05-16T11:32:50.884Z,27.29
2019-05-16T11:33:50.873Z,25.50
2019-05-16T11:34:50.855Z,26.10
2019-05-16T11:35:50.853Z,28.50
2019-05-16T11:36:50.986Z,33.40
2019-05-16T11:37:50.826Z,28.10
2019-05-16T11:38:50.816Z,27.79
2019-05-16T11:39:50.810Z,27.60
2019-05-16T11:40:50.797Z,26.29
2019-05-16T11:41:50.787Z,27.29
2019-05-16T11:43:05.469Z,26.39
2019-05-16T11:44:17.576Z,24.20
2019-05-16T11:45:16.529Z,24.20
2019-05-16T11:46:15.561Z,26.00
2019-05-16T11:47:16.613Z,25.10
2019-05-16T11:48:17.093Z,25.39
2019-05-16T11:49:16.623Z,25.89
2019-05-16T11:50:17.632Z,26.00
2019-05-16T11:51:17.500Z,24.89
2019-05-16T11:52:17.842Z,24.60
2019-05-16T11:53:17.463Z,26.20
2019-05-16T11:54:15.528Z,28.29
2019-05-16T11:55:15.472Z,25.89
2019-05-16T11:56:15.456Z,26.70
2019-05-16T11:57:17.740Z,27.70
2019-05-16T11:58:17.937Z,25.39
2019-05-16T11:59:15.426Z,28.79
2019-05-16T12:00:17.944Z,26.29
2019-05-16T12:01:16.518Z,25.39
2019-05-16T12:02:17.495Z,26.70
2019-05-16T12:03:17.088Z,24.70
2019-05-16T12:04:17.435Z,25.20
2019-05-16T12:05:17.193Z,24.79
2019-05-16T12:06:17.145Z,25.00
2019-05-16T12:07:19.064Z,25.79
2019-05-16T12:08:17.466Z,25.50
2019-05-16T12:09:17.698Z,24.60
2019-05-16T12:10:16.422Z,24.70
2019-05-16T12:11:17.657Z,24.39
2019-05-16T12:12:16.520Z,24.20
2019-05-16T12:13:25.247Z,24.29
2019-05-16T12:14:40.086Z,25.10
2019-05-16T12:15:40.082Z,24.50
2019-05-16T12:16:40.075Z,25.50
2019-05-16T12:17:40.209Z,25.00
2019-05-16T12:18:40.050Z,24.89
2019-05-16T12:19:44.056Z,24.29
2019-05-16T12:20:40.029Z,24.70
2019-05-16T12:21:40.018Z,24.60
2019-05-16T12:22:40.020Z,24.50
2019-05-16T12:23:40.125Z,26.39
2019-05-16T12:24:41.554Z,24.50
2019-05-16T12:25:39.971Z,25.70
2019-05-16T12:26:40.001Z,24.89
2019-05-16T12:27:42.314Z,25.29
2019-05-16T12:28:39.948Z,25.39
2019-05-16T12:29:39.982Z,25.29
2019-05-16T12:30:40.411Z,26.10
2019-05-16T12:31:54.234Z,24.60
2019-05-16T12:33:07.116Z,21.60
2019-05-16T12:34:08.982Z,22.60
2019-05-16T12:35:06.445Z,24.29
2019-05-16T12:36:07.089Z,23.79
2019-05-16T12:37:07.205Z,23.10
2019-05-16T12:38:07.794Z,25.29
2019-05-16T12:39:04.654Z,24.10
2019-05-16T12:40:04.642Z,25.50
2019-05-16T12:41:06.996Z,25.00
2019-05-16T12:42:08.141Z,24.70
2019-05-16T12:43:07.535Z,26.60
2019-05-16T12:44:07.418Z,25.10
2019-05-16T12:45:06.875Z,25.20
2019-05-16T12:46:07.182Z,25.39
2019-05-16T12:47:04.618Z,25.50
2019-05-16T12:48:06.784Z,26.50
2019-05-16T12:49:06.869Z,25.60
2019-05-16T12:50:04.537Z,24.20
2019-05-16T12:51:07.903Z,28.20
2019-05-16T12:52:06.589Z,28.70
2019-05-16T12:53:07.763Z,27.39
2019-05-16T12:54:04.494Z,26.20
2019-05-16T12:55:04.485Z,25.79
2019-05-16T12:56:04.480Z,26.60
2019-05-16T12:57:04.465Z,26.00
2019-05-16T12:58:12.849Z,24.20
2019-05-16T12:59:29.363Z,23.70
2019-05-16T13:00:29.348Z,24.50
2019-05-16T13:01:34.049Z,27.10
2019-05-16T13:02:29.322Z,25.39
2019-05-16T13:03:29.315Z,26.20
2019-05-16T13:04:29.352Z,24.29
2019-05-16T13:05:29.330Z,25.39
2019-05-16T13:06:29.284Z,25.39
2019-05-16T13:07:29.267Z,25.70
2019-05-16T13:08:29.255Z,25.89
2019-05-16T13:09:29.244Z,26.10
2019-05-16T13:10:29.384Z,27.20
2019-05-16T13:11:29.227Z,25.50
2019-05-16T13:12:29.212Z,26.29
2019-05-16T13:13:29.207Z,26.10
2019-05-16T13:14:29.191Z,26.00
2019-05-16T13:15:29.183Z,25.70
2019-05-16T13:16:29.221Z,26.50
2019-05-16T13:17:29.165Z,26.79